Taxila Weather



Taxila's Current Weather

Temprature 32.78o few clouds

few clouds

Rain: 0 %

Min Temprature32.78o
Max Temprature32.78o
Humidity35
Wind Speed1.34 m/h
Sun Rise05:13:34
Sun Set18:56:57
Current Time: 08-May-2021 15:03:44
Lat/Lon: 33.7476, 72.8075




Taxila's Geo Location



Taxila's Weather Forecast

Time Overall Temp Min Temp Max Temp Humidity Wind Speed Rain
08-May-2021 (Sat)
17:00:00 few clouds 33.000 33.000 33.450 30 3.09 m/h 0 %
20:00:00 light rain 29.230 27.460 29.230 36 3.72 m/h 15 %
23:00:00 broken clouds 24.750 24.750 24.750 43 2.39 m/h 0 %
09-May-2021 (Sun)
02:00:00 broken clouds 23.970 23.970 23.970 44 1.63 m/h 0 %
05:00:00 light rain 22.510 22.510 22.510 47 1.71 m/h 13 %
08:00:00 broken clouds 28.130 28.130 28.130 34 1.58 m/h 0 %
11:00:00 scattered clouds 33.180 33.180 33.180 24 1.63 m/h 0 %
14:00:00 clear sky 35.920 35.920 35.920 19 3.96 m/h 0 %
17:00:00 clear sky 35.080 35.080 35.080 19 3.4 m/h 0 %
20:00:00 few clouds 29.940 29.940 29.940 26 1.24 m/h 0 %
23:00:00 scattered clouds 25.550 25.550 25.550 41 5.15 m/h 0 %
10-May-2021 (Mon)
02:00:00 broken clouds 24.460 24.460 24.460 43 1.52 m/h 0 %
05:00:00 light rain 22.870 22.870 22.870 50 2.04 m/h 25 %
08:00:00 light rain 27.680 27.680 27.680 36 1.62 m/h 67 %
11:00:00 overcast clouds 32.560 32.560 32.560 25 0.88 m/h 0 %
14:00:00 scattered clouds 35.550 35.550 35.550 21 2.67 m/h 0 %
17:00:00 scattered clouds 35.470 35.470 35.470 20 3.46 m/h 0 %
20:00:00 scattered clouds 30.620 30.620 30.620 28 2.85 m/h 0 %
23:00:00 scattered clouds 28.020 28.020 28.020 33 2.37 m/h 0 %
11-May-2021 (Tue)
02:00:00 scattered clouds 25.670 25.670 25.670 40 1.69 m/h 0 %
05:00:00 light rain 25.040 25.040 25.040 42 2.33 m/h 19 %
08:00:00 light rain 29.500 29.500 29.500 32 1.79 m/h 36 %
11:00:00 few clouds 34.500 34.500 34.500 22 0.76 m/h 0 %
14:00:00 clear sky 37.850 37.850 37.850 17 4.59 m/h 0 %
17:00:00 clear sky 37.630 37.630 37.630 15 1.52 m/h 0 %
20:00:00 broken clouds 27.540 27.540 27.540 37 6.08 m/h 0 %
23:00:00 light rain 21.930 21.930 21.930 63 8.22 m/h 72 %
12-May-2021 (Wed)
02:00:00 light rain 22.250 22.250 22.250 60 3.33 m/h 225 %
05:00:00 light rain 20.730 20.730 20.730 71 3 m/h 30 %
08:00:00 light rain 24.470 24.470 24.470 52 2.57 m/h 115 %
11:00:00 light rain 29.790 29.790 29.790 34 0.83 m/h 45 %
14:00:00 broken clouds 33.040 33.040 33.040 26 2.6 m/h 0 %
17:00:00 light rain 28.680 28.680 28.680 37 4.84 m/h 73 %
20:00:00 light rain 23.100 23.100 23.100 58 6.29 m/h 288 %
23:00:00 light rain 22.530 22.530 22.530 61 2.76 m/h 60 %
13-May-2021 (Thu)
02:00:00 light rain 19.920 19.920 19.920 71 0.87 m/h 198 %
05:00:00 moderate rain 19.560 19.560 19.560 74 1.24 m/h 440 %
08:00:00 light rain 23.270 23.270 23.270 54 1.19 m/h 159 %
11:00:00 scattered clouds 27.610 27.610 27.610 39 1.82 m/h 0 %
14:00:00 scattered clouds 30.740 30.740 30.740 28 3.65 m/h 0 %

Famous Cities (60)